sensor_id;sensor_type;location;lat;lon;timestamp;P1;P4;P2;P0;N10;N4;N25;N1;N05;TS
79462;SPS30;68931;47.286;18.756;2023-11-19T00:00:11;0.00;0.00;0.00;0.00;;;;362.00;1.00;
79462;SPS30;68931;47.286;18.756;2023-11-19T00:00:44;0.00;0.00;0.00;0.00;;;;362.00;1.00;
79462;SPS30;68931;47.286;18.756;2023-11-19T00:01:23;0.00;0.00;0.00;0.00;;;;362.00;1.00;
79462;SPS30;68931;47.286;18.756;2023-11-19T00:01:55;0.00;0.00;0.00;0.00;;;;362.00;1.00;
79462;SPS30;68931;47.286;18.756;2023-11-19T00:02:28;0.00;0.00;0.00;0.00;;;;362.33;1.00;
79462;SPS30;68931;47.286;18.756;2023-11-19T00:03:03;0.00;0.00;0.00;0.00;;;;363.00;1.00;
79462;SPS30;68931;47.286;18.756;2023-11-19T00:03:35;0.00;0.00;0.00;0.00;;;;363.33;1.00;
79462;SPS30;68931;47.286;18.756;2023-11-19T00:04:07;0.00;0.00;0.00;0.00;;;;364.00;1.00;
79462;SPS30;68931;47.286;18.756;2023-11-19T00:04:42;0.00;0.00;0.00;0.00;;;;364.00;1.00;
79462;SPS30;68931;47.286;18.756;2023-11-19T00:05:14;0.00;0.00;0.00;0.00;;;;364.00;1.00;
79462;SPS30;68931;47.286;18.756;2023-11-19T00:05:46;0.00;0.00;0.00;0.00;;;;363.67;1.00;
79462;SPS30;68931;47.286;18.756;2023-11-19T00:06:18;0.00;0.00;0.00;0.00;;;;363.00;1.00;
79462;SPS30;68931;47.286;18.756;2023-11-19T00:06:50;0.00;0.00;0.00;0.00;;;;363.00;1.00;
79462;SPS30;68931;47.286;18.756;2023-11-19T00:07:23;0.00;0.00;0.00;0.00;;;;363.00;1.00;
79462;SPS30;68931;47.286;18.756;2023-11-19T00:07:58;0.00;0.00;0.00;0.00;;;;362.67;1.00;
79462;SPS30;68931;47.286;18.756;2023-11-19T00:08:32;0.00;0.00;0.00;0.00;;;;362.00;1.00;
79462;SPS30;68931;47.286;18.756;2023-11-19T00:09:04;0.00;0.00;0.00;0.00;;;;361.33;1.00;
79462;SPS30;68931;47.286;18.756;2023-11-19T00:09:37;0.00;0.00;0.00;0.00;;;;361.00;1.00;
79462;SPS30;68931;47.286;18.756;2023-11-19T00:10:12;0.00;0.00;0.00;0.00;;;;361.00;1.00;
79462;SPS30;68931;47.286;18.756;2023-11-19T00:10:47;0.00;0.00;0.00;0.00;;;;360.33;1.00;
79462;SPS30;68931;47.286;18.756;2023-11-19T00:11:19;0.00;0.00;0.00;0.00;;;;359.67;1.00;
79462;SPS30;68931;47.286;18.756;2023-11-19T00:11:51;0.00;0.00;0.00;0.00;;;;359.00;1.00;
79462;SPS30;68931;47.286;18.756;2023-11-19T00:12:27;0.00;0.00;0.00;0.00;;;;359.00;1.00;
79462;SPS30;68931;47.286;18.756;2023-11-19T00:12:59;0.00;0.00;0.00;0.00;;;;359.00;1.00;
79462;SPS30;68931;47.286;18.756;2023-11-19T00:13:31;0.00;0.00;0.00;0.00;;;;359.00;1.00;
79462;SPS30;68931;47.286;18.756;2023-11-19T00:14:03;0.00;0.00;0.00;0.00;;;;359.00;1.00;
79462;SPS30;68931;47.286;18.756;2023-11-19T00:14:36;0.00;0.00;0.00;0.00;;;;358.00;1.00;
79462;SPS30;68931;47.286;18.756;2023-11-19T00:15:08;0.00;0.00;0.00;0.00;;;;358.00;1.00;
79462;SPS30;68931;47.286;18.756;2023-11-19T00:15:43;0.00;0.00;0.00;0.00;;;;358.00;1.00;
79462;SPS30;68931;47.286;18.756;2023-11-19T00:16:19;0.00;0.00;0.00;0.00;;;;358.00;1.00;
79462;SPS30;68931;47.286;18.756;2023-11-19T00:16:51;0.00;0.00;0.00;0.00;;;;358.00;1.00;
79462;SPS30;68931;47.286;18.756;2023-11-19T00:17:25;0.00;0.00;0.00;0.00;;;;358.33;1.00;
79462;SPS30;68931;47.286;18.756;2023-11-19T00:17:58;0.00;0.00;0.00;0.00;;;;359.00;1.00;
79462;SPS30;68931;47.286;18.756;2023-11-19T00:18:34;0.00;0.00;0.00;0.00;;;;359.67;1.00;
79462;SPS30;68931;47.286;18.756;2023-11-19T00:19:07;0.00;0.00;0.00;0.00;;;;360.00;1.00;
79462;SPS30;68931;47.286;18.756;2023-11-19T00:19:40;0.00;0.00;0.00;0.00;;;;360.00;1.00;
79462;SPS30;68931;47.286;18.756;2023-11-19T00:20:13;0.00;0.00;0.00;0.00;;;;359.67;1.00;
79462;SPS30;68931;47.286;18.756;2023-11-19T00:20:50;0.00;0.00;0.00;0.00;;;;358.67;1.00;
79462;SPS30;68931;47.286;18.756;2023-11-19T00:21:22;0.00;0.00;0.00;0.00;;;;358.00;1.00;
79462;SPS30;68931;47.286;18.756;2023-11-19T00:21:54;0.00;0.00;0.00;0.00;;;;358.00;1.00;
79462;SPS30;68931;47.286;18.756;2023-11-19T00:22:26;0.00;0.00;0.00;0.00;;;;358.00;1.00;
79462;SPS30;68931;47.286;18.756;2023-11-19T00:22:58;0.00;0.00;0.00;0.00;;;;358.00;1.00;
79462;SPS30;68931;47.286;18.756;2023-11-19T00:23:32;0.00;0.00;0.00;0.00;;;;358.67;1.00;
79462;SPS30;68931;47.286;18.756;2023-11-19T00:24:05;0.00;0.00;0.00;0.00;;;;359.00;1.00;
79462;SPS30;68931;47.286;18.756;2023-11-19T00:24:37;0.00;0.00;0.00;0.00;;;;359.00;1.00;
79462;SPS30;68931;47.286;18.756;2023-11-19T00:25:09;0.00;0.00;0.00;0.00;;;;360.00;1.00;
79462;SPS30;68931;47.286;18.756;2023-11-19T00:25:42;0.00;0.00;0.00;0.00;;;;360.00;1.00;
79462;SPS30;68931;47.286;18.756;2023-11-19T00:26:14;0.00;0.00;0.00;0.00;;;;360.00;1.00;
79462;SPS30;68931;47.286;18.756;2023-11-19T00:26:49;0.00;0.00;0.00;0.00;;;;360.00;1.00;
79462;SPS30;68931;47.286;18.756;2023-11-19T00:27:21;0.00;0.00;0.00;0.00;;;;360.00;1.00;
79462;SPS30;68931;47.286;18.756;2023-11-19T00:27:54;0.00;0.00;0.00;0.00;;;;360.00;1.00;
79462;SPS30;68931;47.286;18.756;2023-11-19T00:28:28;0.00;0.00;0.00;0.00;;;;360.00;1.00;
79462;SPS30;68931;47.286;18.756;2023-11-19T00:29:00;0.00;0.00;0.00;0.00;;;;360.67;1.00;
79462;SPS30;68931;47.286;18.756;2023-11-19T00:29:32;0.00;0.00;0.00;0.00;;;;361.33;1.00;
79462;SPS30;68931;47.286;18.756;2023-11-19T00:30:10;0.00;0.00;0.00;0.00;;;;362.00;1.00;
79462;SPS30;68931;47.286;18.756;2023-11-19T00:30:42;0.00;0.00;0.00;0.00;;;;362.67;1.00;
79462;SPS30;68931;47.286;18.756;2023-11-19T00:31:14;0.00;0.00;0.00;0.00;;;;363.00;1.00;
79462;SPS30;68931;47.286;18.756;2023-11-19T00:31:47;0.00;0.00;0.00;0.00;;;;364.33;1.00;
79462;SPS30;68931;47.286;18.756;2023-11-19T00:32:19;0.00;0.00;0.00;0.00;;;;365.00;1.00;
79462;SPS30;68931;47.286;18.756;2023-11-19T00:32:51;0.00;0.00;0.00;0.00;;;;365.33;1.00;
79462;SPS30;68931;47.286;18.756;2023-11-19T00:33:23;0.00;0.00;0.00;0.00;;;;366.00;1.00;
79462;SPS30;68931;47.286;18.756;2023-11-19T00:33:56;0.00;0.00;0.00;0.00;;;;366.00;1.00;
79462;SPS30;68931;47.286;18.756;2023-11-19T00:34:28;0.00;0.00;0.00;0.00;;;;366.00;1.00;
79462;SPS30;68931;47.286;18.756;2023-11-19T00:35:07;0.00;0.00;0.00;0.00;;;;366.00;1.00;
79462;SPS30;68931;47.286;18.756;2023-11-19T00:35:39;0.00;0.00;0.00;0.00;;;;367.00;1.00;
79462;SPS30;68931;47.286;18.756;2023-11-19T00:36:11;0.00;0.00;0.00;0.00;;;;367.00;1.00;
79462;SPS30;68931;47.286;18.756;2023-11-19T00:36:43;0.00;0.00;0.00;0.00;;;;367.00;1.00;
79462;SPS30;68931;47.286;18.756;2023-11-19T00:37:19;0.00;0.00;0.00;0.00;;;;367.00;1.00;
79462;SPS30;68931;47.286;18.756;2023-11-19T00:37:54;0.00;0.00;0.00;0.00;;;;367.00;1.00;
79462;SPS30;68931;47.286;18.756;2023-11-19T00:38:26;0.00;0.00;0.00;0.00;;;;367.00;1.00;
79462;SPS30;68931;47.286;18.756;2023-11-19T00:39:01;0.00;0.00;0.00;0.00;;;;367.67;1.00;
79462;SPS30;68931;47.286;18.756;2023-11-19T00:39:33;0.00;0.00;0.00;0.00;;;;368.00;1.00;
79462;SPS30;68931;47.286;18.756;2023-11-19T00:40:05;0.00;0.00;0.00;0.00;;;;368.00;1.00;
79462;SPS30;68931;47.286;18.756;2023-11-19T00:40:40;0.00;0.00;0.00;0.00;;;;368.00;1.00;
79462;SPS30;68931;47.286;18.756;2023-11-19T00:41:12;0.00;0.00;0.00;0.00;;;;368.00;1.00;
79462;SPS30;68931;47.286;18.756;2023-11-19T00:41:45;0.00;0.00;0.00;0.00;;;;368.00;1.00;
79462;SPS30;68931;47.286;18.756;2023-11-19T00:42:17;0.00;0.00;0.00;0.00;;;;368.00;1.00;
79462;SPS30;68931;47.286;18.756;2023-11-19T00:42:50;0.00;0.00;0.00;0.00;;;;368.00;1.00;
79462;SPS30;68931;47.286;18.756;2023-11-19T00:43:24;0.00;0.00;0.00;0.00;;;;368.33;1.00;
79462;SPS30;68931;47.286;18.756;2023-11-19T00:43:57;0.00;0.00;0.00;0.00;;;;369.00;1.00;
79462;SPS30;68931;47.286;18.756;2023-11-19T00:44:29;0.00;0.00;0.00;0.00;;;;370.00;1.00;
79462;SPS30;68931;47.286;18.756;2023-11-19T00:45:01;0.00;0.00;0.00;0.00;;;;370.00;1.00;
79462;SPS30;68931;47.286;18.756;2023-11-19T00:45:33;0.00;0.00;0.00;0.00;;;;370.33;1.00;
79462;SPS30;68931;47.286;18.756;2023-11-19T00:46:07;0.00;0.00;0.00;0.00;;;;371.00;1.00;
79462;SPS30;68931;47.286;18.756;2023-11-19T00:46:39;0.00;0.00;0.00;0.00;;;;371.67;1.00;
79462;SPS30;68931;47.286;18.756;2023-11-19T00:47:11;0.00;0.00;0.00;0.00;;;;372.00;1.00;
79462;SPS30;68931;47.286;18.756;2023-11-19T00:47:43;0.00;0.00;0.00;0.00;;;;372.33;1.00;
79462;SPS30;68931;47.286;18.756;2023-11-19T00:48:15;0.00;0.00;0.00;0.00;;;;373.00;1.00;
79462;SPS30;68931;47.286;18.756;2023-11-19T00:48:47;0.00;0.00;0.00;0.00;;;;374.00;1.00;
79462;SPS30;68931;47.286;18.756;2023-11-19T00:49:19;0.00;0.00;0.00;0.00;;;;374.00;1.00;
79462;SPS30;68931;47.286;18.756;2023-11-19T00:49:51;0.00;0.00;0.00;0.00;;;;374.00;1.00;
79462;SPS30;68931;47.286;18.756;2023-11-19T00:50:24;0.00;0.00;0.00;0.00;;;;374.00;1.00;
79462;SPS30;68931;47.286;18.756;2023-11-19T00:50:56;0.00;0.00;0.00;0.00;;;;374.00;1.00;
79462;SPS30;68931;47.286;18.756;2023-11-19T00:51:28;0.00;0.00;0.00;0.00;;;;375.00;1.00;
79462;SPS30;68931;47.286;18.756;2023-11-19T00:52:02;0.00;0.00;0.00;0.00;;;;374.33;1.00;
79462;SPS30;68931;47.286;18.756;2023-11-19T00:52:35;0.00;0.00;0.00;0.00;;;;374.33;1.00;
79462;SPS30;68931;47.286;18.756;2023-11-19T00:53:08;0.00;0.00;0.00;0.00;;;;374.00;1.00;
79462;SPS30;68931;47.286;18.756;2023-11-19T00:53:40;0.00;0.00;0.00;0.00;;;;374.00;1.00;
79462;SPS30;68931;47.286;18.756;2023-11-19T00:54:12;0.00;0.00;0.00;0.00;;;;373.67;1.00;
79462;SPS30;68931;47.286;18.756;2023-11-19T00:54:44;0.00;0.00;0.00;0.00;;;;373.00;1.00;
79462;SPS30;68931;47.286;18.756;2023-11-19T00:55:16;0.00;0.00;0.00;0.00;;;;372.67;1.00;
79462;SPS30;68931;47.286;18.756;2023-11-19T00:55:49;0.00;0.00;0.00;0.00;;;;372.00;1.00;
79462;SPS30;68931;47.286;18.756;2023-11-19T00:56:21;0.00;0.00;0.00;0.00;;;;372.00;1.00;
79462;SPS30;68931;47.286;18.756;2023-11-19T00:56:55;0.00;0.00;0.00;0.00;;;;371.33;1.00;
79462;SPS30;68931;47.286;18.756;2023-11-19T00:57:31;0.00;0.00;0.00;0.00;;;;370.33;1.00;
79462;SPS30;68931;47.286;18.756;2023-11-19T00:58:04;0.00;0.00;0.00;0.00;;;;369.33;1.00;
79462;SPS30;68931;47.286;18.756;2023-11-19T00:58:36;0.00;0.00;0.00;0.00;;;;369.00;1.00;
79462;SPS30;68931;47.286;18.756;2023-11-19T00:59:08;0.00;0.00;0.00;0.00;;;;369.00;1.00;
79462;SPS30;68931;47.286;18.756;2023-11-19T00:59:43;0.00;0.00;0.00;0.00;;;;368.67;1.00;
79462;SPS30;68931;47.286;18.756;2023-11-19T01:00:15;0.00;0.00;0.00;0.00;;;;367.67;1.00;
79462;SPS30;68931;47.286;18.756;2023-11-19T01:00:50;0.00;0.00;0.00;0.00;;;;367.00;1.00;
79462;SPS30;68931;47.286;18.756;2023-11-19T01:01:23;0.00;0.00;0.00;0.00;;;;365.67;1.00;
79462;SPS30;68931;47.286;18.756;2023-11-19T01:01:57;0.00;0.00;0.00;0.00;;;;364.67;1.00;
79462;SPS30;68931;47.286;18.756;2023-11-19T01:02:29;0.00;0.00;0.00;0.00;;;;364.00;1.00;
79462;SPS30;68931;47.286;18.756;2023-11-19T01:03:03;0.00;0.00;0.00;0.00;;;;364.00;1.00;
79462;SPS30;68931;47.286;18.756;2023-11-19T01:03:38;0.00;0.00;0.00;0.00;;;;363.33;1.00;
79462;SPS30;68931;47.286;18.756;2023-11-19T01:04:10;0.00;0.00;0.00;0.00;;;;362.33;1.00;
79462;SPS30;68931;47.286;18.756;2023-11-19T01:04:42;0.00;0.00;0.00;0.00;;;;362.00;1.00;
79462;SPS30;68931;47.286;18.756;2023-11-19T01:05:14;0.00;0.00;0.00;0.00;;;;362.00;1.00;
79462;SPS30;68931;47.286;18.756;2023-11-19T01:05:46;0.00;0.00;0.00;0.00;;;;362.00;1.00;
79462;SPS30;68931;47.286;18.756;2023-11-19T01:06:28;0.00;0.00;0.00;0.00;;;;362.00;1.00;
79462;SPS30;68931;47.286;18.756;2023-11-19T01:07:02;0.00;0.00;0.00;0.00;;;;363.00;1.00;
79462;SPS30;68931;47.286;18.756;2023-11-19T01:07:37;0.00;0.00;0.00;0.00;;;;363.00;1.00;
79462;SPS30;68931;47.286;18.756;2023-11-19T01:08:10;0.00;0.00;0.00;0.00;;;;363.00;1.00;
79462;SPS30;68931;47.286;18.756;2023-11-19T01:08:42;0.00;0.00;0.00;0.00;;;;363.00;1.00;
79462;SPS30;68931;47.286;18.756;2023-11-19T01:09:16;0.00;0.00;0.00;0.00;;;;363.00;1.00;
79462;SPS30;68931;47.286;18.756;2023-11-19T01:09:50;0.00;0.00;0.00;0.00;;;;363.00;1.00;
79462;SPS30;68931;47.286;18.756;2023-11-19T01:10:22;0.00;0.00;0.00;0.00;;;;363.33;1.00;
79462;SPS30;68931;47.286;18.756;2023-11-19T01:10:56;0.00;0.00;0.00;0.00;;;;364.00;1.00;
79462;SPS30;68931;47.286;18.756;2023-11-19T01:11:28;0.00;0.00;0.00;0.00;;;;364.00;1.00;
79462;SPS30;68931;47.286;18.756;2023-11-19T01:12:03;0.00;0.00;0.00;0.00;;;;364.00;1.00;
79462;SPS30;68931;47.286;18.756;2023-11-19T01:12:35;0.00;0.00;0.00;0.00;;;;364.00;1.00;
79462;SPS30;68931;47.286;18.756;2023-11-19T01:13:09;0.00;0.00;0.00;0.00;;;;364.00;1.00;
79462;SPS30;68931;47.286;18.756;2023-11-19T01:13:41;0.00;0.00;0.00;0.00;;;;364.00;1.00;
79462;SPS30;68931;47.286;18.756;2023-11-19T01:14:13;0.00;0.00;0.00;0.00;;;;364.00;1.00;
79462;SPS30;68931;47.286;18.756;2023-11-19T01:14:45;0.00;0.00;0.00;0.00;;;;364.00;1.00;
79462;SPS30;68931;47.286;18.756;2023-11-19T01:15:17;0.00;0.00;0.00;0.00;;;;364.67;1.00;
79462;SPS30;68931;47.286;18.756;2023-11-19T01:15:52;0.00;0.00;0.00;0.00;;;;364.00;1.00;
79462;SPS30;68931;47.286;18.756;2023-11-19T01:16:25;0.00;0.00;0.00;0.00;;;;364.00;1.00;
79462;SPS30;68931;47.286;18.756;2023-11-19T01:16:58;0.00;0.00;0.00;0.00;;;;364.00;1.00;
79462;SPS30;68931;47.286;18.756;2023-11-19T01:17:30;0.00;0.00;0.00;0.00;;;;365.00;1.00;
79462;SPS30;68931;47.286;18.756;2023-11-19T01:18:03;0.00;0.00;0.00;0.00;;;;365.00;1.00;
79462;SPS30;68931;47.286;18.756;2023-11-19T01:18:36;0.00;0.00;0.00;0.00;;;;365.00;1.00;
79462;SPS30;68931;47.286;18.756;2023-11-19T01:19:08;0.00;0.00;0.00;0.00;;;;365.67;1.00;
79462;SPS30;68931;47.286;18.756;2023-11-19T01:19:42;0.00;0.00;0.00;0.00;;;;366.00;1.00;
79462;SPS30;68931;47.286;18.756;2023-11-19T01:20:14;0.00;0.00;0.00;0.00;;;;366.00;1.00;
79462;SPS30;68931;47.286;18.756;2023-11-19T01:20:46;0.00;0.00;0.00;0.00;;;;366.33;1.00;
79462;SPS30;68931;47.286;18.756;2023-11-19T01:21:19;0.00;0.00;0.00;0.00;;;;367.00;1.00;
79462;SPS30;68931;47.286;18.756;2023-11-19T01:21:51;0.00;0.00;0.00;0.00;;;;367.00;1.00;
79462;SPS30;68931;47.286;18.756;2023-11-19T01:22:23;0.00;0.00;0.00;0.00;;;;367.00;1.00;
79462;SPS30;68931;47.286;18.756;2023-11-19T01:22:55;0.00;0.00;0.00;0.00;;;;367.00;1.00;
79462;SPS30;68931;47.286;18.756;2023-11-19T01:23:27;0.00;0.00;0.00;0.00;;;;367.00;1.00;
79462;SPS30;68931;47.286;18.756;2023-11-19T01:24:01;0.00;0.00;0.00;0.00;;;;367.00;1.00;
79462;SPS30;68931;47.286;18.756;2023-11-19T01:24:35;0.00;0.00;0.00;0.00;;;;367.00;1.00;
79462;SPS30;68931;47.286;18.756;2023-11-19T01:25:11;0.00;0.00;0.00;0.00;;;;367.00;1.00;
79462;SPS30;68931;47.286;18.756;2023-11-19T01:25:45;0.00;0.00;0.00;0.00;;;;367.00;1.00;
79462;SPS30;68931;47.286;18.756;2023-11-19T01:26:18;0.00;0.00;0.00;0.00;;;;368.00;1.00;
79462;SPS30;68931;47.286;18.756;2023-11-19T01:26:50;0.00;0.00;0.00;0.00;;;;367.00;1.00;
79462;SPS30;68931;47.286;18.756;2023-11-19T01:27:23;0.00;0.00;0.00;0.00;;;;367.00;1.00;
79462;SPS30;68931;47.286;18.756;2023-11-19T01:27:55;0.00;0.00;0.00;0.00;;;;367.00;1.00;
79462;SPS30;68931;47.286;18.756;2023-11-19T01:28:33;0.00;0.00;0.00;0.00;;;;367.33;1.00;
79462;SPS30;68931;47.286;18.756;2023-11-19T01:29:21;0.00;0.00;0.00;0.00;;;;368.00;1.00;
79462;SPS30;68931;47.286;18.756;2023-11-19T01:29:54;0.00;0.00;0.00;0.00;;;;368.00;1.00;
79462;SPS30;68931;47.286;18.756;2023-11-19T01:30:28;0.00;0.00;0.00;0.00;;;;368.00;1.00;
79462;SPS30;68931;47.286;18.756;2023-11-19T01:31:00;0.00;0.00;0.00;0.00;;;;368.00;1.00;
79462;SPS30;68931;47.286;18.756;2023-11-19T01:31:32;0.00;0.00;0.00;0.00;;;;368.00;1.00;
79462;SPS30;68931;47.286;18.756;2023-11-19T01:32:05;0.00;0.00;0.00;0.00;;;;368.33;1.00;
79462;SPS30;68931;47.286;18.756;2023-11-19T01:32:37;0.00;0.00;0.00;0.00;;;;369.00;1.00;
79462;SPS30;68931;47.286;18.756;2023-11-19T01:33:10;0.00;0.00;0.00;0.00;;;;369.00;1.00;
79462;SPS30;68931;47.286;18.756;2023-11-19T01:33:42;0.00;0.00;0.00;0.00;;;;369.00;1.00;
79462;SPS30;68931;47.286;18.756;2023-11-19T01:34:14;0.00;0.00;0.00;0.00;;;;369.00;1.00;
79462;SPS30;68931;47.286;18.756;2023-11-19T01:34:46;0.00;0.00;0.00;0.00;;;;369.00;1.00;
79462;SPS30;68931;47.286;18.756;2023-11-19T01:35:18;0.00;0.00;0.00;0.00;;;;369.00;1.00;
79462;SPS30;68931;47.286;18.756;2023-11-19T01:35:50;0.00;0.00;0.00;0.00;;;;370.00;1.00;
79462;SPS30;68931;47.286;18.756;2023-11-19T01:36:22;0.00;0.00;0.00;0.00;;;;370.00;1.00;
79462;SPS30;68931;47.286;18.756;2023-11-19T01:36:55;0.00;0.00;0.00;0.00;;;;370.00;1.00;
79462;SPS30;68931;47.286;18.756;2023-11-19T01:37:27;0.00;0.00;0.00;0.00;;;;369.33;1.00;
79462;SPS30;68931;47.286;18.756;2023-11-19T01:37:59;0.00;0.00;0.00;0.00;;;;369.67;1.00;
79462;SPS30;68931;47.286;18.756;2023-11-19T01:38:31;0.00;0.00;0.00;0.00;;;;370.00;1.00;
79462;SPS30;68931;47.286;18.756;2023-11-19T01:39:03;0.00;0.00;0.00;0.00;;;;370.00;1.00;
79462;SPS30;68931;47.286;18.756;2023-11-19T01:39:36;0.00;0.00;0.00;0.00;;;;370.00;1.00;
79462;SPS30;68931;47.286;18.756;2023-11-19T01:40:08;0.00;0.00;0.00;0.00;;;;370.33;1.00;
79462;SPS30;68931;47.286;18.756;2023-11-19T01:40:43;0.00;0.00;0.00;0.00;;;;372.33;1.00;
79462;SPS30;68931;47.286;18.756;2023-11-19T01:41:15;0.00;0.00;0.00;0.00;;;;379.33;1.00;
79462;SPS30;68931;47.286;18.756;2023-11-19T01:41:47;0.00;0.00;0.00;0.00;;;;386.00;1.00;
79462;SPS30;68931;47.286;18.756;2023-11-19T01:42:19;0.00;0.00;0.00;0.00;;;;386.33;1.00;
79462;SPS30;68931;47.286;18.756;2023-11-19T01:42:52;0.00;0.00;0.00;0.00;;;;384.67;1.00;
79462;SPS30;68931;47.286;18.756;2023-11-19T01:44:08;0.00;0.00;0.00;0.00;;;;382.33;1.00;
79462;SPS30;68931;47.286;18.756;2023-11-19T01:44:41;0.00;0.00;0.00;0.00;;;;382.00;1.00;
79462;SPS30;68931;47.286;18.756;2023-11-19T01:45:19;0.00;0.00;0.00;0.00;;;;381.33;1.00;
79462;SPS30;68931;47.286;18.756;2023-11-19T01:45:58;0.00;0.00;0.00;0.00;;;;379.33;1.00;
79462;SPS30;68931;47.286;18.756;2023-11-19T01:46:31;0.00;0.00;0.00;0.00;;;;378.33;1.00;
79462;SPS30;68931;47.286;18.756;2023-11-19T01:47:04;0.00;0.00;0.00;0.00;;;;378.00;1.00;
79462;SPS30;68931;47.286;18.756;2023-11-19T01:47:39;0.00;0.00;0.00;0.00;;;;377.33;1.00;
79462;SPS30;68931;47.286;18.756;2023-11-19T01:48:12;0.00;0.00;0.00;0.00;;;;376.67;1.00;
79462;SPS30;68931;47.286;18.756;2023-11-19T01:48:46;0.00;0.00;0.00;0.00;;;;376.00;1.00;
79462;SPS30;68931;47.286;18.756;2023-11-19T01:49:19;0.00;0.00;0.00;0.00;;;;376.00;1.00;
79462;SPS30;68931;47.286;18.756;2023-11-19T01:49:51;0.00;0.00;0.00;0.00;;;;376.00;1.00;
79462;SPS30;68931;47.286;18.756;2023-11-19T01:50:25;0.00;0.00;0.00;0.00;;;;376.00;1.00;
79462;SPS30;68931;47.286;18.756;2023-11-19T01:50:59;0.00;0.00;0.00;0.00;;;;375.67;1.00;
79462;SPS30;68931;47.286;18.756;2023-11-19T01:51:36;0.00;0.00;0.00;0.00;;;;375.00;1.00;
79462;SPS30;68931;47.286;18.756;2023-11-19T01:52:09;0.00;0.00;0.00;0.00;;;;375.00;1.00;
79462;SPS30;68931;47.286;18.756;2023-11-19T01:52:41;0.00;0.00;0.00;0.00;;;;375.00;1.00;
79462;SPS30;68931;47.286;18.756;2023-11-19T01:53:13;0.00;0.00;0.00;0.00;;;;375.00;1.00;
79462;SPS30;68931;47.286;18.756;2023-11-19T01:53:45;0.00;0.00;0.00;0.00;;;;375.00;1.00;
79462;SPS30;68931;47.286;18.756;2023-11-19T01:54:17;0.00;0.00;0.00;0.00;;;;375.00;1.00;
79462;SPS30;68931;47.286;18.756;2023-11-19T01:54:52;0.00;0.00;0.00;0.00;;;;375.00;1.00;
79462;SPS30;68931;47.286;18.756;2023-11-19T01:55:26;0.00;0.00;0.00;0.00;;;;374.33;1.00;
79462;SPS30;68931;47.286;18.756;2023-11-19T01:56:02;0.00;0.00;0.00;0.00;;;;374.00;1.00;
79462;SPS30;68931;47.286;18.756;2023-11-19T01:56:37;0.00;0.00;0.00;0.00;;;;373.67;1.00;
79462;SPS30;68931;47.286;18.756;2023-11-19T01:57:12;0.00;0.00;0.00;0.00;;;;372.67;1.00;
79462;SPS30;68931;47.286;18.756;2023-11-19T01:57:45;0.00;0.00;0.00;0.00;;;;371.67;1.00;
79462;SPS30;68931;47.286;18.756;2023-11-19T01:58:19;0.00;0.00;0.00;0.00;;;;370.67;1.00;
79462;SPS30;68931;47.286;18.756;2023-11-19T01:58:51;0.00;0.00;0.00;0.00;;;;369.67;1.00;
79462;SPS30;68931;47.286;18.756;2023-11-19T01:59:26;0.00;0.00;0.00;0.00;;;;369.00;1.00;
79462;SPS30;68931;47.286;18.756;2023-11-19T02:00:00;0.00;0.00;0.00;0.00;;;;369.00;1.00;
79462;SPS30;68931;47.286;18.756;2023-11-19T02:00:32;0.00;0.00;0.00;0.00;;;;368.00;1.00;
79462;SPS30;68931;47.286;18.756;2023-11-19T02:01:05;0.00;0.00;0.00;0.00;;;;368.00;1.00;
79462;SPS30;68931;47.286;18.756;2023-11-19T02:01:38;0.00;0.00;0.00;0.00;;;;368.00;1.00;
79462;SPS30;68931;47.286;18.756;2023-11-19T02:02:11;0.00;0.00;0.00;0.00;;;;368.00;1.00;
79462;SPS30;68931;47.286;18.756;2023-11-19T02:02:45;0.00;0.00;0.00;0.00;;;;367.00;1.00;
79462;SPS30;68931;47.286;18.756;2023-11-19T02:03:21;0.00;0.00;0.00;0.00;;;;367.00;1.00;
79462;SPS30;68931;47.286;18.756;2023-11-19T02:03:53;0.00;0.00;0.00;0.00;;;;367.00;1.00;
79462;SPS30;68931;47.286;18.756;2023-11-19T02:04:25;0.00;0.00;0.00;0.00;;;;366.67;1.00;
79462;SPS30;68931;47.286;18.756;2023-11-19T02:04:58;0.00;0.00;0.00;0.00;;;;366.00;1.00;
79462;SPS30;68931;47.286;18.756;2023-11-19T02:05:30;0.00;0.00;0.00;0.00;;;;366.00;1.00;
79462;SPS30;68931;47.286;18.756;2023-11-19T02:06:04;0.00;0.00;0.00;0.00;;;;365.33;1.00;
79462;SPS30;68931;47.286;18.756;2023-11-19T02:06:37;0.00;0.00;0.00;0.00;;;;365.00;1.00;
79462;SPS30;68931;47.286;18.756;2023-11-19T02:07:14;0.00;0.00;0.00;0.00;;;;365.00;1.00;
79462;SPS30;68931;47.286;18.756;2023-11-19T02:07:49;0.00;0.00;0.00;0.00;;;;365.00;1.00;
79462;SPS30;68931;47.286;18.756;2023-11-19T02:08:22;0.00;0.00;0.00;0.00;;;;365.00;1.00;
79462;SPS30;68931;47.286;18.756;2023-11-19T02:08:54;0.00;0.00;0.00;0.00;;;;365.00;1.00;
79462;SPS30;68931;47.286;18.756;2023-11-19T02:09:27;0.00;0.00;0.00;0.00;;;;365.00;1.00;
79462;SPS30;68931;47.286;18.756;2023-11-19T02:09:59;0.00;0.00;0.00;0.00;;;;365.00;1.00;
79462;SPS30;68931;47.286;18.756;2023-11-19T02:10:34;0.00;0.00;0.00;0.00;;;;365.00;1.00;
79462;SPS30;68931;47.286;18.756;2023-11-19T02:11:06;0.00;0.00;0.00;0.00;;;;365.00;1.00;
79462;SPS30;68931;47.286;18.756;2023-11-19T02:11:41;0.00;0.00;0.00;0.00;;;;365.67;1.00;
79462;SPS30;68931;47.286;18.756;2023-11-19T02:12:16;0.00;0.00;0.00;0.00;;;;366.00;1.00;
79462;SPS30;68931;47.286;18.756;2023-11-19T02:12:48;0.00;0.00;0.00;0.00;;;;366.00;1.00;
79462;SPS30;68931;47.286;18.756;2023-11-19T02:13:20;0.00;0.00;0.00;0.00;;;;366.00;1.00;
79462;SPS30;68931;47.286;18.756;2023-11-19T02:13:52;0.00;0.00;0.00;0.00;;;;365.00;1.00;
79462;SPS30;68931;47.286;18.756;2023-11-19T02:14:25;0.00;0.00;0.00;0.00;;;;364.00;1.00;
79462;SPS30;68931;47.286;18.756;2023-11-19T02:14:58;0.00;0.00;0.00;0.00;;;;362.67;1.00;
79462;SPS30;68931;47.286;18.756;2023-11-19T02:15:33;0.00;0.00;0.00;0.00;;;;361.33;1.00;
79462;SPS30;68931;47.286;18.756;2023-11-19T02:16:05;0.00;0.00;0.00;0.00;;;;360.33;1.00;
79462;SPS30;68931;47.286;18.756;2023-11-19T02:16:38;0.00;0.00;0.00;0.00;;;;360.00;1.00;
79462;SPS30;68931;47.286;18.756;2023-11-19T02:17:29;0.00;0.00;0.00;0.00;;;;359.67;1.00;
79462;SPS30;68931;47.286;18.756;2023-11-19T02:18:21;0.00;0.00;0.00;0.00;;;;358.33;1.00;
79462;SPS30;68931;47.286;18.756;2023-11-19T02:18:59;0.00;0.00;0.00;0.00;;;;358.67;1.00;
79462;SPS30;68931;47.286;18.756;2023-11-19T02:19:31;0.00;0.00;0.00;0.00;;;;358.00;1.00;
79462;SPS30;68931;47.286;18.756;2023-11-19T02:20:04;0.00;0.00;0.00;0.00;;;;358.67;1.00;
79462;SPS30;68931;47.286;18.756;2023-11-19T02:20:40;0.00;0.00;0.00;0.00;;;;359.00;1.00;
79462;SPS30;68931;47.286;18.756;2023-11-19T02:21:12;0.00;0.00;0.00;0.00;;;;358.67;1.00;
79462;SPS30;68931;47.286;18.756;2023-11-19T02:21:46;0.00;0.00;0.00;0.00;;;;358.00;1.00;
79462;SPS30;68931;47.286;18.756;2023-11-19T02:22:18;0.00;0.00;0.00;0.00;;;;357.00;1.00;
79462;SPS30;68931;47.286;18.756;2023-11-19T02:22:51;0.00;0.00;0.00;0.00;;;;356.67;1.00;
79462;SPS30;68931;47.286;18.756;2023-11-19T02:23:23;0.00;0.00;0.00;0.00;;;;356.33;1.00;
79462;SPS30;68931;47.286;18.756;2023-11-19T02:23:58;0.00;0.00;0.00;0.00;;;;356.00;1.00;
79462;SPS30;68931;47.286;18.756;2023-11-19T02:24:35;0.00;0.00;0.00;0.00;;;;356.00;1.00;
79462;SPS30;68931;47.286;18.756;2023-11-19T02:25:12;0.00;0.00;0.00;0.00;;;;356.00;1.00;
79462;SPS30;68931;47.286;18.756;2023-11-19T02:28:23;0.00;0.00;0.00;0.00;;;;352.00;1.00;
79462;SPS30;68931;47.286;18.756;2023-11-19T02:28:55;0.00;0.00;0.00;0.00;;;;352.00;1.00;
79462;SPS30;68931;47.286;18.756;2023-11-19T02:29:27;0.00;0.00;0.00;0.00;;;;351.33;1.00;
79462;SPS30;68931;47.286;18.756;2023-11-19T02:29:59;0.00;0.00;0.00;0.00;;;;350.67;1.00;
79462;SPS30;68931;47.286;18.756;2023-11-19T02:30:31;0.00;0.00;0.00;0.00;;;;350.00;1.00;
79462;SPS30;68931;47.286;18.756;2023-11-19T02:31:04;0.00;0.00;0.00;0.00;;;;350.00;1.00;
79462;SPS30;68931;47.286;18.756;2023-11-19T02:31:36;0.00;0.00;0.00;0.00;;;;350.00;1.00;
79462;SPS30;68931;47.286;18.756;2023-11-19T02:32:09;0.00;0.00;0.00;0.00;;;;350.00;1.00;
79462;SPS30;68931;47.286;18.756;2023-11-19T02:32:41;0.00;0.00;0.00;0.00;;;;350.00;1.00;
79462;SPS30;68931;47.286;18.756;2023-11-19T02:33:14;0.00;0.00;0.00;0.00;;;;349.00;1.00;
79462;SPS30;68931;47.286;18.756;2023-11-19T02:33:46;0.00;0.00;0.00;0.00;;;;348.33;1.00;